Hovedside
METAR-TAF:

METAR-TAF

Lufthavner :

Bluefields, Nicaragua

breddegrad: 12-00N, lengdegrad: 083-46W, høyde over havet: 5 m

Gjeldene værobservasjon

Denne rapporten ble laget for 6 timer og 9 minutter siden, klokken 23:00 UTC
Vind 4 kt fra Øst
Temperatur 29°C
Luftfuktighet 79%
Trykk 1011 hPa
Sikt 10 km eller mer
Få skyer i en høyde av 2300 ft
Spredte skyer i en høyde av 30000 ft

METAR: MNBL 192300Z 10004KT 9999 FEW023 SCT300 29/25 Q1011

Tid: 23:09 (05:09 UTC)

Varsel

Denne rapporten ble laget for 8 timer og 25 minutter siden, klokken 20:44 UTC
Varsel gyldig fra 20. klokken 00 UTC til 20. klokken 24 UTC
Vind 6 kt fra Nordøst
Sikt 10 km eller mer
Få skyer i en høyde av 2000 ft
Midlertidig
fra 20. klokken 08 UTC til 20. klokken 18 UTC
Vind 10 kt fra Øst
Spredte skyer i en høyde av 2200 ft

TAF: MNBL 192044Z 2000/2024 05006KT 9999 FEW020 TEMPO 2008/2018 09010KT SCT022

Værobservasjoner og værvarsel for over 4000 flyplasser (METAR- og TAF-rapporter).

Tilgjengelige stasjoner er representert av de røde og gule prikkene på kartet.

Hold musepekeren over prikken for å se navnet på stasjonen.

Klikk så for å se værobservasjoner og -varsler.

For å forandre kartet kan du klikke på den grønne knappen med svart kryss for å zoome inn, på den grønne knappen med strek for å zoome ut, eller på de grønne pilene for å se tilstøtende kart.


METAR-TAF: